<?xml version="1.0" encoding="utf-8"?>
<gpx xmlns:xsi="http://www.w3.org/2001/XMLSchema-instance" xmlns:xsd="http://www.w3.org/2001/XMLSchema" version="1.1" creator="Shapelink.com" xmlns="http://www.topografix.com/GPX/1/1" xmlns:gpxtpx="http://www.garmin.com/xmlschemas/TrackPointExtension/v1">
  <metadata>
    <name>Løping 2.52 km, 2012-07-17</name>
    <desc></desc>
    <author><name>Mikael Blom</name></author> 
    <time>2012-07-17T10:02:00Z</time>
  </metadata>
  <trk>
    <name>Løping 2.52 km, 2012-07-17</name>
    <trkseg>
      <trkpt lat="59.972363" lon="17.7494435">
        <ele>38.5901</ele>
        <time>2012-07-17T10:02:00Z</time>
      </trkpt>
      <trkpt lat="59.9723993" lon="17.7492591">
        <ele>38.1094</ele>
        <time>2012-07-17T10:02:06Z</time>
      </trkpt>
      <trkpt lat="59.9724649" lon="17.7491318">
        <ele>38.5901</ele>
        <time>2012-07-17T10:02:12Z</time>
      </trkpt>
      <trkpt lat="59.9725581" lon="17.7490119">
        <ele>35.7061</ele>
        <time>2012-07-17T10:02:19Z</time>
      </trkpt>
      <trkpt lat="59.9726245" lon="17.7488458">
        <ele>36.6675</ele>
        <time>2012-07-17T10:02:25Z</time>
      </trkpt>
      <trkpt lat="59.9726728" lon="17.7487557">
        <ele>36.1868</ele>
        <time>2012-07-17T10:02:29Z</time>
      </trkpt>
      <trkpt lat="59.9727645" lon="17.7485903">
        <ele>35.2255</ele>
        <time>2012-07-17T10:02:37Z</time>
      </trkpt>
      <trkpt lat="59.9728263" lon="17.7484817">
        <ele>30.4188</ele>
        <time>2012-07-17T10:02:42Z</time>
      </trkpt>
      <trkpt lat="59.972928" lon="17.7483357">
        <ele>24.651</ele>
        <time>2012-07-17T10:02:50Z</time>
      </trkpt>
      <trkpt lat="59.9729847" lon="17.7482382">
        <ele>21.767</ele>
        <time>2012-07-17T10:02:55Z</time>
      </trkpt>
      <trkpt lat="59.9730311" lon="17.7481133">
        <ele>18.4023</ele>
        <time>2012-07-17T10:03:01Z</time>
      </trkpt>
      <trkpt lat="59.9730406" lon="17.7481014">
        <ele>18.4023</ele>
        <time>2012-07-17T10:03:02Z</time>
      </trkpt>
      <trkpt lat="59.97313" lon="17.7479524">
        <ele>19.3638</ele>
        <time>2012-07-17T10:03:10Z</time>
      </trkpt>
      <trkpt lat="59.9731965" lon="17.7478118">
        <ele>23.6896</ele>
        <time>2012-07-17T10:03:16Z</time>
      </trkpt>
      <trkpt lat="59.9732546" lon="17.7476787">
        <ele>27.0543</ele>
        <time>2012-07-17T10:03:22Z</time>
      </trkpt>
      <trkpt lat="59.9733639" lon="17.7475667">
        <ele>27.5349</ele>
        <time>2012-07-17T10:03:31Z</time>
      </trkpt>
      <trkpt lat="59.9734229" lon="17.7475042">
        <ele>27.0543</ele>
        <time>2012-07-17T10:03:36Z</time>
      </trkpt>
      <trkpt lat="59.9734893" lon="17.7474535">
        <ele>27.0543</ele>
        <time>2012-07-17T10:03:41Z</time>
      </trkpt>
      <trkpt lat="59.9735933" lon="17.7473007">
        <ele>30.4188</ele>
        <time>2012-07-17T10:03:49Z</time>
      </trkpt>
      <trkpt lat="59.9736704" lon="17.7471839">
        <ele>32.3416</ele>
        <time>2012-07-17T10:03:56Z</time>
      </trkpt>
      <trkpt lat="59.9737747" lon="17.7470814">
        <ele>31.3801</ele>
        <time>2012-07-17T10:04:04Z</time>
      </trkpt>
      <trkpt lat="59.973872" lon="17.7469597">
        <ele>29.9381</ele>
        <time>2012-07-17T10:04:12Z</time>
      </trkpt>
      <trkpt lat="59.9739839" lon="17.7468401">
        <ele>29.4575</ele>
        <time>2012-07-17T10:04:20Z</time>
      </trkpt>
      <trkpt lat="59.974086" lon="17.7467106">
        <ele>31.3801</ele>
        <time>2012-07-17T10:04:27Z</time>
      </trkpt>
      <trkpt lat="59.9741899" lon="17.7465775">
        <ele>32.3416</ele>
        <time>2012-07-17T10:04:35Z</time>
      </trkpt>
      <trkpt lat="59.9743015" lon="17.7464095">
        <ele>33.7834</ele>
        <time>2012-07-17T10:04:45Z</time>
      </trkpt>
      <trkpt lat="59.9743997" lon="17.7462572">
        <ele>33.3029</ele>
        <time>2012-07-17T10:04:54Z</time>
      </trkpt>
      <trkpt lat="59.9744821" lon="17.746153">
        <ele>31.3801</ele>
        <time>2012-07-17T10:05:01Z</time>
      </trkpt>
      <trkpt lat="59.9745439" lon="17.7460546">
        <ele>31.3801</ele>
        <time>2012-07-17T10:05:06Z</time>
      </trkpt>
      <trkpt lat="59.9746432" lon="17.7458862">
        <ele>31.3801</ele>
        <time>2012-07-17T10:05:14Z</time>
      </trkpt>
      <trkpt lat="59.9747619" lon="17.7456392">
        <ele>31.8607</ele>
        <time>2012-07-17T10:05:25Z</time>
      </trkpt>
      <trkpt lat="59.9748612" lon="17.7454263">
        <ele>29.9381</ele>
        <time>2012-07-17T10:05:34Z</time>
      </trkpt>
      <trkpt lat="59.9749231" lon="17.7452493">
        <ele>29.9381</ele>
        <time>2012-07-17T10:05:41Z</time>
      </trkpt>
      <trkpt lat="59.9749809" lon="17.7450668">
        <ele>30.8995</ele>
        <time>2012-07-17T10:05:48Z</time>
      </trkpt>
      <trkpt lat="59.9750412" lon="17.7448978">
        <ele>31.3801</ele>
        <time>2012-07-17T10:05:55Z</time>
      </trkpt>
      <trkpt lat="59.9751291" lon="17.7446207">
        <ele>31.8607</ele>
        <time>2012-07-17T10:06:06Z</time>
      </trkpt>
      <trkpt lat="59.9751409" lon="17.7445655">
        <ele>32.3416</ele>
        <time>2012-07-17T10:06:08Z</time>
      </trkpt>
      <trkpt lat="59.9751945" lon="17.7443433">
        <ele>32.8223</ele>
        <time>2012-07-17T10:06:16Z</time>
      </trkpt>
      <trkpt lat="59.9752364" lon="17.7440992">
        <ele>32.8223</ele>
        <time>2012-07-17T10:06:24Z</time>
      </trkpt>
      <trkpt lat="59.975269" lon="17.7439081">
        <ele>33.3029</ele>
        <time>2012-07-17T10:06:31Z</time>
      </trkpt>
      <trkpt lat="59.975311" lon="17.743718">
        <ele>32.3416</ele>
        <time>2012-07-17T10:06:38Z</time>
      </trkpt>
      <trkpt lat="59.9753363" lon="17.7435527">
        <ele>31.3801</ele>
        <time>2012-07-17T10:06:44Z</time>
      </trkpt>
      <trkpt lat="59.975388" lon="17.7433734">
        <ele>30.4188</ele>
        <time>2012-07-17T10:06:51Z</time>
      </trkpt>
      <trkpt lat="59.9754587" lon="17.7431409">
        <ele>29.4575</ele>
        <time>2012-07-17T10:07:00Z</time>
      </trkpt>
      <trkpt lat="59.9755061" lon="17.7429882">
        <ele>29.9381</ele>
        <time>2012-07-17T10:07:06Z</time>
      </trkpt>
      <trkpt lat="59.9755634" lon="17.7427617">
        <ele>30.4188</ele>
        <time>2012-07-17T10:07:14Z</time>
      </trkpt>
      <trkpt lat="59.9755843" lon="17.7425992">
        <ele>30.8995</ele>
        <time>2012-07-17T10:07:19Z</time>
      </trkpt>
      <trkpt lat="59.9756092" lon="17.7424867">
        <ele>30.8995</ele>
        <time>2012-07-17T10:07:23Z</time>
      </trkpt>
      <trkpt lat="59.9756691" lon="17.7423096">
        <ele>29.4575</ele>
        <time>2012-07-17T10:07:30Z</time>
      </trkpt>
      <trkpt lat="59.9757053" lon="17.7421379">
        <ele>29.9381</ele>
        <time>2012-07-17T10:07:36Z</time>
      </trkpt>
      <trkpt lat="59.975754" lon="17.74192">
        <ele>31.3801</ele>
        <time>2012-07-17T10:07:44Z</time>
      </trkpt>
      <trkpt lat="59.9758024" lon="17.7416769">
        <ele>32.8223</ele>
        <time>2012-07-17T10:07:53Z</time>
      </trkpt>
      <trkpt lat="59.9758639" lon="17.741415">
        <ele>32.3416</ele>
        <time>2012-07-17T10:08:03Z</time>
      </trkpt>
      <trkpt lat="59.9759289" lon="17.7411553">
        <ele>32.3416</ele>
        <time>2012-07-17T10:08:13Z</time>
      </trkpt>
      <trkpt lat="59.9759917" lon="17.7409369">
        <ele>31.8607</ele>
        <time>2012-07-17T10:08:22Z</time>
      </trkpt>
      <trkpt lat="59.976041" lon="17.7407401">
        <ele>30.4188</ele>
        <time>2012-07-17T10:08:30Z</time>
      </trkpt>
      <trkpt lat="59.9761233" lon="17.7404782">
        <ele>29.4575</ele>
        <time>2012-07-17T10:08:40Z</time>
      </trkpt>
      <trkpt lat="59.9761943" lon="17.7402466">
        <ele>29.4575</ele>
        <time>2012-07-17T10:08:48Z</time>
      </trkpt>
      <trkpt lat="59.9762512" lon="17.7400821">
        <ele>29.4575</ele>
        <time>2012-07-17T10:08:55Z</time>
      </trkpt>
      <trkpt lat="59.9762947" lon="17.7399237">
        <ele>29.4575</ele>
        <time>2012-07-17T10:09:01Z</time>
      </trkpt>
      <trkpt lat="59.9763683" lon="17.7397242">
        <ele>29.4575</ele>
        <time>2012-07-17T10:09:09Z</time>
      </trkpt>
      <trkpt lat="59.9764714" lon="17.7395202">
        <ele>29.9381</ele>
        <time>2012-07-17T10:09:18Z</time>
      </trkpt>
      <trkpt lat="59.9765563" lon="17.7393999">
        <ele>31.3801</ele>
        <time>2012-07-17T10:09:26Z</time>
      </trkpt>
      <trkpt lat="59.9766491" lon="17.7393202">
        <ele>29.4575</ele>
        <time>2012-07-17T10:09:34Z</time>
      </trkpt>
      <trkpt lat="59.9767703" lon="17.7392754">
        <ele>27.5349</ele>
        <time>2012-07-17T10:09:43Z</time>
      </trkpt>
      <trkpt lat="59.976797" lon="17.73927">
        <ele>28.0155</ele>
        <time>2012-07-17T10:09:45Z</time>
      </trkpt>
      <trkpt lat="59.9769156" lon="17.7392531">
        <ele>28.0155</ele>
        <time>2012-07-17T10:09:53Z</time>
      </trkpt>
      <trkpt lat="59.9770324" lon="17.7392491">
        <ele>28.4962</ele>
        <time>2012-07-17T10:10:00Z</time>
      </trkpt>
      <trkpt lat="59.977121" lon="17.7392008">
        <ele>25.6123</ele>
        <time>2012-07-17T10:10:08Z</time>
      </trkpt>
      <trkpt lat="59.9772154" lon="17.739144">
        <ele>27.0543</ele>
        <time>2012-07-17T10:10:15Z</time>
      </trkpt>
      <trkpt lat="59.9773492" lon="17.7390368">
        <ele>31.3801</ele>
        <time>2012-07-17T10:10:24Z</time>
      </trkpt>
      <trkpt lat="59.9774966" lon="17.738961">
        <ele>31.8607</ele>
        <time>2012-07-17T10:10:35Z</time>
      </trkpt>
      <trkpt lat="59.9775711" lon="17.7389685">
        <ele>31.3801</ele>
        <time>2012-07-17T10:10:40Z</time>
      </trkpt>
      <trkpt lat="59.9776999" lon="17.7389383">
        <ele>28.4962</ele>
        <time>2012-07-17T10:10:48Z</time>
      </trkpt>
      <trkpt lat="59.9777415" lon="17.7389606">
        <ele>26.0929</ele>
        <time>2012-07-17T10:10:51Z</time>
      </trkpt>
      <trkpt lat="59.9778238" lon="17.7389996">
        <ele>25.1317</ele>
        <time>2012-07-17T10:10:56Z</time>
      </trkpt>
      <trkpt lat="59.9779259" lon="17.7390409">
        <ele>22.7283</ele>
        <time>2012-07-17T10:11:03Z</time>
      </trkpt>
      <trkpt lat="59.9779323" lon="17.7390456">
        <ele>21.2864</ele>
        <time>2012-07-17T10:11:04Z</time>
      </trkpt>
      <trkpt lat="59.9779661" lon="17.7390791">
        <ele>19.8444</ele>
        <time>2012-07-17T10:11:08Z</time>
      </trkpt>
      <trkpt lat="59.9780046" lon="17.7391044">
        <ele>23.6896</ele>
        <time>2012-07-17T10:11:10Z</time>
      </trkpt>
      <trkpt lat="59.9781039" lon="17.739143">
        <ele>24.1703</ele>
        <time>2012-07-17T10:11:17Z</time>
      </trkpt>
      <trkpt lat="59.978189" lon="17.7391778">
        <ele>25.6123</ele>
        <time>2012-07-17T10:11:22Z</time>
      </trkpt>
      <trkpt lat="59.9782153" lon="17.7391829">
        <ele>23.6896</ele>
        <time>2012-07-17T10:11:24Z</time>
      </trkpt>
      <trkpt lat="59.9782911" lon="17.7391636">
        <ele>19.8444</ele>
        <time>2012-07-17T10:11:31Z</time>
      </trkpt>
      <trkpt lat="59.9783875" lon="17.7391818">
        <ele>17.4412</ele>
        <time>2012-07-17T10:11:37Z</time>
      </trkpt>
      <trkpt lat="59.9784816" lon="17.7392117">
        <ele>19.3638</ele>
        <time>2012-07-17T10:11:42Z</time>
      </trkpt>
      <trkpt lat="59.978556" lon="17.739235">
        <ele>20.8057</ele>
        <time>2012-07-17T10:11:46Z</time>
      </trkpt>
      <trkpt lat="59.9786729" lon="17.7392617">
        <ele>25.6123</ele>
        <time>2012-07-17T10:11:53Z</time>
      </trkpt>
      <trkpt lat="59.9787632" lon="17.7392669">
        <ele>28.4962</ele>
        <time>2012-07-17T10:11:59Z</time>
      </trkpt>
      <trkpt lat="59.9788457" lon="17.7392579">
        <ele>27.5349</ele>
        <time>2012-07-17T10:12:06Z</time>
      </trkpt>
      <trkpt lat="59.9788585" lon="17.7392517">
        <ele>27.0543</ele>
        <time>2012-07-17T10:12:07Z</time>
      </trkpt>
      <trkpt lat="59.9789086" lon="17.7392191">
        <ele>26.0929</ele>
        <time>2012-07-17T10:12:11Z</time>
      </trkpt>
      <trkpt lat="59.9790183" lon="17.7391844">
        <ele>26.5736</ele>
        <time>2012-07-17T10:12:18Z</time>
      </trkpt>
      <trkpt lat="59.9791313" lon="17.7391428">
        <ele>27.0543</ele>
        <time>2012-07-17T10:12:26Z</time>
      </trkpt>
      <trkpt lat="59.979192" lon="17.7390782">
        <ele>27.0543</ele>
        <time>2012-07-17T10:12:31Z</time>
      </trkpt>
      <trkpt lat="59.979253" lon="17.7390322">
        <ele>24.1703</ele>
        <time>2012-07-17T10:12:37Z</time>
      </trkpt>
      <trkpt lat="59.9793192" lon="17.7390055">
        <ele>26.5736</ele>
        <time>2012-07-17T10:12:41Z</time>
      </trkpt>
      <trkpt lat="59.9794246" lon="17.7389485">
        <ele>30.8995</ele>
        <time>2012-07-17T10:12:48Z</time>
      </trkpt>
      <trkpt lat="59.9794837" lon="17.7388946">
        <ele>30.8995</ele>
        <time>2012-07-17T10:12:53Z</time>
      </trkpt>
      <trkpt lat="59.9795485" lon="17.7388384">
        <ele>29.4575</ele>
        <time>2012-07-17T10:12:58Z</time>
      </trkpt>
      <trkpt lat="59.9796281" lon="17.7387791">
        <ele>25.6123</ele>
        <time>2012-07-17T10:13:04Z</time>
      </trkpt>
      <trkpt lat="59.9797224" lon="17.7387421">
        <ele>22.7283</ele>
        <time>2012-07-17T10:13:11Z</time>
      </trkpt>
      <trkpt lat="59.9798271" lon="17.7387309">
        <ele>18.4023</ele>
        <time>2012-07-17T10:13:18Z</time>
      </trkpt>
      <trkpt lat="59.9798498" lon="17.7387382">
        <ele>17.4412</ele>
        <time>2012-07-17T10:13:20Z</time>
      </trkpt>
      <trkpt lat="59.9798851" lon="17.7387467">
        <ele>14.557</ele>
        <time>2012-07-17T10:13:24Z</time>
      </trkpt>
      <trkpt lat="59.9799605" lon="17.7387467">
        <ele>12.6344</ele>
        <time>2012-07-17T10:13:31Z</time>
      </trkpt>
      <trkpt lat="59.9800653" lon="17.7387546">
        <ele>13.5958</ele>
        <time>2012-07-17T10:13:38Z</time>
      </trkpt>
      <trkpt lat="59.9801674" lon="17.7386995">
        <ele>8.30859</ele>
        <time>2012-07-17T10:13:45Z</time>
      </trkpt>
      <trkpt lat="59.9802389" lon="17.7387046">
        <ele>12.1538</ele>
        <time>2012-07-17T10:13:49Z</time>
      </trkpt>
      <trkpt lat="59.9803226" lon="17.7387162">
        <ele>16.9604</ele>
        <time>2012-07-17T10:13:54Z</time>
      </trkpt>
      <trkpt lat="59.9804254" lon="17.7387036">
        <ele>14.557</ele>
        <time>2012-07-17T10:14:00Z</time>
      </trkpt>
      <trkpt lat="59.9805404" lon="17.7386411">
        <ele>18.8831</ele>
        <time>2012-07-17T10:14:08Z</time>
      </trkpt>
      <trkpt lat="59.9806653" lon="17.7386016">
        <ele>22.2476</ele>
        <time>2012-07-17T10:14:17Z</time>
      </trkpt>
      <trkpt lat="59.9806824" lon="17.7385952">
        <ele>21.2864</ele>
        <time>2012-07-17T10:14:18Z</time>
      </trkpt>
      <trkpt lat="59.9808048" lon="17.7385276">
        <ele>26.5736</ele>
        <time>2012-07-17T10:14:25Z</time>
      </trkpt>
      <trkpt lat="59.9808732" lon="17.7385188">
        <ele>27.5349</ele>
        <time>2012-07-17T10:14:28Z</time>
      </trkpt>
      <trkpt lat="59.9809801" lon="17.7384895">
        <ele>27.5349</ele>
        <time>2012-07-17T10:14:35Z</time>
      </trkpt>
      <trkpt lat="59.9810414" lon="17.7384773">
        <ele>26.5736</ele>
        <time>2012-07-17T10:14:39Z</time>
      </trkpt>
      <trkpt lat="59.981138" lon="17.7384623">
        <ele>22.2476</ele>
        <time>2012-07-17T10:14:45Z</time>
      </trkpt>
      <trkpt lat="59.9811898" lon="17.7384525">
        <ele>23.6896</ele>
        <time>2012-07-17T10:14:48Z</time>
      </trkpt>
      <trkpt lat="59.9812593" lon="17.7384333">
        <ele>24.1703</ele>
        <time>2012-07-17T10:14:53Z</time>
      </trkpt>
      <trkpt lat="59.9812804" lon="17.7384225">
        <ele>22.7283</ele>
        <time>2012-07-17T10:14:55Z</time>
      </trkpt>
      <trkpt lat="59.9814008" lon="17.7383857">
        <ele>23.209</ele>
        <time>2012-07-17T10:15:03Z</time>
      </trkpt>
      <trkpt lat="59.9815101" lon="17.7382981">
        <ele>22.2476</ele>
        <time>2012-07-17T10:15:11Z</time>
      </trkpt>
      <trkpt lat="59.9817103" lon="17.738258">
        <ele>36.1868</ele>
        <time>2012-07-17T10:15:20Z</time>
      </trkpt>
      <trkpt lat="59.9818201" lon="17.7382106">
        <ele>41.9547</ele>
        <time>2012-07-17T10:15:27Z</time>
      </trkpt>
      <trkpt lat="59.9818595" lon="17.7381867">
        <ele>42.4354</ele>
        <time>2012-07-17T10:15:30Z</time>
      </trkpt>
      <trkpt lat="59.9819752" lon="17.7381347">
        <ele>43.3966</ele>
        <time>2012-07-17T10:15:37Z</time>
      </trkpt>
      <trkpt lat="59.9820707" lon="17.738071">
        <ele>40.0321</ele>
        <time>2012-07-17T10:15:44Z</time>
      </trkpt>
      <trkpt lat="59.9821545" lon="17.7380552">
        <ele>35.2255</ele>
        <time>2012-07-17T10:15:51Z</time>
      </trkpt>
      <trkpt lat="59.9822125" lon="17.7380299">
        <ele>33.3029</ele>
        <time>2012-07-17T10:15:55Z</time>
      </trkpt>
      <trkpt lat="59.9822668" lon="17.737998">
        <ele>31.3801</ele>
        <time>2012-07-17T10:15:59Z</time>
      </trkpt>
      <trkpt lat="59.9823082" lon="17.7380075">
        <ele>28.4962</ele>
        <time>2012-07-17T10:16:02Z</time>
      </trkpt>
      <trkpt lat="59.9823838" lon="17.7379796">
        <ele>24.1703</ele>
        <time>2012-07-17T10:16:08Z</time>
      </trkpt>
      <trkpt lat="59.9824508" lon="17.7380335">
        <ele>24.651</ele>
        <time>2012-07-17T10:16:12Z</time>
      </trkpt>
      <trkpt lat="59.9825648" lon="17.7380668">
        <ele>27.5349</ele>
        <time>2012-07-17T10:16:18Z</time>
      </trkpt>
      <trkpt lat="59.9826508" lon="17.738099">
        <ele>30.4188</ele>
        <time>2012-07-17T10:16:23Z</time>
      </trkpt>
      <trkpt lat="59.9827956" lon="17.7381036">
        <ele>34.2642</ele>
        <time>2012-07-17T10:16:31Z</time>
      </trkpt>
      <trkpt lat="59.9828844" lon="17.738136">
        <ele>34.7449</ele>
        <time>2012-07-17T10:16:37Z</time>
      </trkpt>
      <trkpt lat="59.9829855" lon="17.738142">
        <ele>36.6675</ele>
        <time>2012-07-17T10:16:43Z</time>
      </trkpt>
      <trkpt lat="59.9830817" lon="17.7381374">
        <ele>33.7834</ele>
        <time>2012-07-17T10:16:49Z</time>
      </trkpt>
      <trkpt lat="59.9831568" lon="17.7381323">
        <ele>33.7834</ele>
        <time>2012-07-17T10:16:54Z</time>
      </trkpt>
      <trkpt lat="59.9832175" lon="17.7380863">
        <ele>34.7449</ele>
        <time>2012-07-17T10:16:58Z</time>
      </trkpt>
      <trkpt lat="59.9833158" lon="17.738094">
        <ele>37.1481</ele>
        <time>2012-07-17T10:17:04Z</time>
      </trkpt>
      <trkpt lat="59.9833379" lon="17.7380765">
        <ele>38.1094</ele>
        <time>2012-07-17T10:17:08Z</time>
      </trkpt>
      <trkpt lat="59.9833703" lon="17.738049">
        <ele>39.0707</ele>
        <time>2012-07-17T10:17:12Z</time>
      </trkpt>
      <trkpt lat="59.9834205" lon="17.7380287">
        <ele>36.1868</ele>
        <time>2012-07-17T10:17:15Z</time>
      </trkpt>
      <trkpt lat="59.9834987" lon="17.7380132">
        <ele>38.5901</ele>
        <time>2012-07-17T10:17:22Z</time>
      </trkpt>
      <trkpt lat="59.9836099" lon="17.7380164">
        <ele>44.358</ele>
        <time>2012-07-17T10:17:28Z</time>
      </trkpt>
      <trkpt lat="59.9836798" lon="17.7380292">
        <ele>45.3192</ele>
        <time>2012-07-17T10:17:31Z</time>
      </trkpt>
      <trkpt lat="59.9837483" lon="17.738012">
        <ele>46.2806</ele>
        <time>2012-07-17T10:17:34Z</time>
      </trkpt>
      <trkpt lat="59.9837768" lon="17.7379928">
        <ele>44.8386</ele>
        <time>2012-07-17T10:17:36Z</time>
      </trkpt>
      <trkpt lat="59.9838792" lon="17.7379837">
        <ele>43.3966</ele>
        <time>2012-07-17T10:17:41Z</time>
      </trkpt>
      <trkpt lat="59.9839262" lon="17.7379803">
        <ele>46.2806</ele>
        <time>2012-07-17T10:17:43Z</time>
      </trkpt>
      <trkpt lat="59.984009" lon="17.7379577">
        <ele>42.916</ele>
        <time>2012-07-17T10:17:50Z</time>
      </trkpt>
      <trkpt lat="59.9840243" lon="17.7379397">
        <ele>41.474</ele>
        <time>2012-07-17T10:17:52Z</time>
      </trkpt>
      <trkpt lat="59.984098" lon="17.7379184">
        <ele>40.5128</ele>
        <time>2012-07-17T10:17:57Z</time>
      </trkpt>
      <trkpt lat="59.9841802" lon="17.7379395">
        <ele>38.5901</ele>
        <time>2012-07-17T10:18:03Z</time>
      </trkpt>
      <trkpt lat="59.9842721" lon="17.7379829">
        <ele>36.1868</ele>
        <time>2012-07-17T10:18:09Z</time>
      </trkpt>
      <trkpt lat="59.9843695" lon="17.7380064">
        <ele>31.3801</ele>
        <time>2012-07-17T10:18:15Z</time>
      </trkpt>
      <trkpt lat="59.9844161" lon="17.738033">
        <ele>28.9769</ele>
        <time>2012-07-17T10:18:19Z</time>
      </trkpt>
      <trkpt lat="59.9844296" lon="17.7380304">
        <ele>28.9769</ele>
        <time>2012-07-17T10:18:20Z</time>
      </trkpt>
      <trkpt lat="59.9845069" lon="17.7380713">
        <ele>27.0543</ele>
        <time>2012-07-17T10:18:26Z</time>
      </trkpt>
      <trkpt lat="59.9845695" lon="17.7380777">
        <ele>27.0543</ele>
        <time>2012-07-17T10:18:31Z</time>
      </trkpt>
      <trkpt lat="59.9846938" lon="17.7381119">
        <ele>29.9381</ele>
        <time>2012-07-17T10:18:38Z</time>
      </trkpt>
      <trkpt lat="59.9847814" lon="17.7381249">
        <ele>31.8607</ele>
        <time>2012-07-17T10:18:43Z</time>
      </trkpt>
      <trkpt lat="59.9848928" lon="17.7381552">
        <ele>33.7834</ele>
        <time>2012-07-17T10:18:49Z</time>
      </trkpt>
      <trkpt lat="59.9849636" lon="17.738167">
        <ele>35.7061</ele>
        <time>2012-07-17T10:18:53Z</time>
      </trkpt>
      <trkpt lat="59.9849983" lon="17.7381582">
        <ele>34.7449</ele>
        <time>2012-07-17T10:18:56Z</time>
      </trkpt>
      <trkpt lat="59.9850823" lon="17.7381705">
        <ele>35.7061</ele>
        <time>2012-07-17T10:19:02Z</time>
      </trkpt>
      <trkpt lat="59.9850984" lon="17.7381806">
        <ele>35.7061</ele>
        <time>2012-07-17T10:19:03Z</time>
      </trkpt>
      <trkpt lat="59.9851853" lon="17.7381981">
        <ele>36.6675</ele>
        <time>2012-07-17T10:19:09Z</time>
      </trkpt>
      <trkpt lat="59.9852403" lon="17.7382021">
        <ele>35.2255</ele>
        <time>2012-07-17T10:19:13Z</time>
      </trkpt>
      <trkpt lat="59.9852673" lon="17.7382058">
        <ele>34.2642</ele>
        <time>2012-07-17T10:19:15Z</time>
      </trkpt>
      <trkpt lat="59.9853331" lon="17.738238">
        <ele>35.7061</ele>
        <time>2012-07-17T10:19:21Z</time>
      </trkpt>
      <trkpt lat="59.9853564" lon="17.7382388">
        <ele>37.1481</ele>
        <time>2012-07-17T10:19:22Z</time>
      </trkpt>
      <trkpt lat="59.9854557" lon="17.7382971">
        <ele>34.7449</ele>
        <time>2012-07-17T10:19:28Z</time>
      </trkpt>
      <trkpt lat="59.9855303" lon="17.7382995">
        <ele>32.8223</ele>
        <time>2012-07-17T10:19:33Z</time>
      </trkpt>
      <trkpt lat="59.985607" lon="17.7383167">
        <ele>29.9381</ele>
        <time>2012-07-17T10:19:39Z</time>
      </trkpt>
      <trkpt lat="59.9856443" lon="17.7383369">
        <ele>29.4575</ele>
        <time>2012-07-17T10:19:41Z</time>
      </trkpt>
      <trkpt lat="59.9857624" lon="17.7384007">
        <ele>30.4188</ele>
        <time>2012-07-17T10:19:48Z</time>
      </trkpt>
      <trkpt lat="59.9858665" lon="17.7384372">
        <ele>26.5736</ele>
        <time>2012-07-17T10:19:55Z</time>
      </trkpt>
      <trkpt lat="59.9859349" lon="17.7384996">
        <ele>25.6123</ele>
        <time>2012-07-17T10:20:00Z</time>
      </trkpt>
      <trkpt lat="59.9860378" lon="17.7385714">
        <ele>25.6123</ele>
        <time>2012-07-17T10:20:07Z</time>
      </trkpt>
      <trkpt lat="59.9861411" lon="17.7386378">
        <ele>25.1317</ele>
        <time>2012-07-17T10:20:15Z</time>
      </trkpt>
      <trkpt lat="59.9861564" lon="17.7386467">
        <ele>26.0929</ele>
        <time>2012-07-17T10:20:16Z</time>
      </trkpt>
      <trkpt lat="59.986224" lon="17.738697">
        <ele>26.0929</ele>
        <time>2012-07-17T10:20:21Z</time>
      </trkpt>
      <trkpt lat="59.9862986" lon="17.7387616">
        <ele>27.5349</ele>
        <time>2012-07-17T10:20:26Z</time>
      </trkpt>
      <trkpt lat="59.986389" lon="17.7388373">
        <ele>26.0929</ele>
        <time>2012-07-17T10:20:33Z</time>
      </trkpt>
      <trkpt lat="59.9864711" lon="17.7389118">
        <ele>27.0543</ele>
        <time>2012-07-17T10:20:39Z</time>
      </trkpt>
      <trkpt lat="59.9865788" lon="17.7389896">
        <ele>29.4575</ele>
        <time>2012-07-17T10:20:45Z</time>
      </trkpt>
      <trkpt lat="59.9866855" lon="17.7390399">
        <ele>28.9769</ele>
        <time>2012-07-17T10:20:52Z</time>
      </trkpt>
      <trkpt lat="59.9866998" lon="17.7390531">
        <ele>29.4575</ele>
        <time>2012-07-17T10:20:54Z</time>
      </trkpt>
      <trkpt lat="59.9867477" lon="17.7391409">
        <ele>32.3416</ele>
        <time>2012-07-17T10:20:59Z</time>
      </trkpt>
      <trkpt lat="59.9868172" lon="17.7392253">
        <ele>38.1094</ele>
        <time>2012-07-17T10:21:03Z</time>
      </trkpt>
      <trkpt lat="59.9868384" lon="17.739244">
        <ele>38.5901</ele>
        <time>2012-07-17T10:21:05Z</time>
      </trkpt>
      <trkpt lat="59.9869044" lon="17.7392771">
        <ele>38.5901</ele>
        <time>2012-07-17T10:21:09Z</time>
      </trkpt>
      <trkpt lat="59.9870195" lon="17.7393176">
        <ele>40.9934</ele>
        <time>2012-07-17T10:21:16Z</time>
      </trkpt>
      <trkpt lat="59.9871352" lon="17.7393158">
        <ele>42.916</ele>
        <time>2012-07-17T10:21:23Z</time>
      </trkpt>
      <trkpt lat="59.9871838" lon="17.739338">
        <ele>43.3966</ele>
        <time>2012-07-17T10:21:28Z</time>
      </trkpt>
      <trkpt lat="59.9872806" lon="17.7393065">
        <ele>40.0321</ele>
        <time>2012-07-17T10:21:35Z</time>
      </trkpt>
      <trkpt lat="59.9873033" lon="17.7392974">
        <ele>38.5901</ele>
        <time>2012-07-17T10:21:37Z</time>
      </trkpt>
      <trkpt lat="59.9873373" lon="17.7392916">
        <ele>41.474</ele>
        <time>2012-07-17T10:21:39Z</time>
      </trkpt>
      <trkpt lat="59.9874805" lon="17.7392746">
        <ele>44.8386</ele>
        <time>2012-07-17T10:21:46Z</time>
      </trkpt>
      <trkpt lat="59.9874942" lon="17.7392788">
        <ele>43.8773</ele>
        <time>2012-07-17T10:21:47Z</time>
      </trkpt>
      <trkpt lat="59.9875675" lon="17.7392906">
        <ele>44.8386</ele>
        <time>2012-07-17T10:21:52Z</time>
      </trkpt>
      <trkpt lat="59.9876976" lon="17.7392826">
        <ele>48.684</ele>
        <time>2012-07-17T10:22:01Z</time>
      </trkpt>
      <trkpt lat="59.9877855" lon="17.7392517">
        <ele>47.2418</ele>
        <time>2012-07-17T10:22:06Z</time>
      </trkpt>
      <trkpt lat="59.9878135" lon="17.7392453">
        <ele>44.358</ele>
        <time>2012-07-17T10:22:08Z</time>
      </trkpt>
      <trkpt lat="59.9878634" lon="17.7392166">
        <ele>42.4354</ele>
        <time>2012-07-17T10:22:12Z</time>
      </trkpt>
      <trkpt lat="59.9879461" lon="17.7391646">
        <ele>38.1094</ele>
        <time>2012-07-17T10:22:18Z</time>
      </trkpt>
      <trkpt lat="59.9880427" lon="17.7391721">
        <ele>34.2642</ele>
        <time>2012-07-17T10:22:24Z</time>
      </trkpt>
      <trkpt lat="59.9880868" lon="17.739157">
        <ele>33.7834</ele>
        <time>2012-07-17T10:22:27Z</time>
      </trkpt>
      <trkpt lat="59.9881427" lon="17.7391445">
        <ele>32.8223</ele>
        <time>2012-07-17T10:22:31Z</time>
      </trkpt>
      <trkpt lat="59.9881691" lon="17.739133">
        <ele>33.3029</ele>
        <time>2012-07-17T10:22:33Z</time>
      </trkpt>
      <trkpt lat="59.9882705" lon="17.739126">
        <ele>38.5901</ele>
        <time>2012-07-17T10:22:39Z</time>
      </trkpt>
      <trkpt lat="59.9883497" lon="17.7391097">
        <ele>40.5128</ele>
        <time>2012-07-17T10:22:44Z</time>
      </trkpt>
      <trkpt lat="59.9884336" lon="17.7390554">
        <ele>40.0321</ele>
        <time>2012-07-17T10:22:50Z</time>
      </trkpt>
      <trkpt lat="59.9885194" lon="17.7390037">
        <ele>42.916</ele>
        <time>2012-07-17T10:22:55Z</time>
      </trkpt>
      <trkpt lat="59.9885524" lon="17.7389792">
        <ele>43.3966</ele>
        <time>2012-07-17T10:22:57Z</time>
      </trkpt>
      <trkpt lat="59.9886032" lon="17.7389703">
        <ele>44.8386</ele>
        <time>2012-07-17T10:23:00Z</time>
      </trkpt>
      <trkpt lat="59.9886644" lon="17.7388959">
        <ele>46.7612</ele>
        <time>2012-07-17T10:23:04Z</time>
      </trkpt>
      <trkpt lat="59.9887227" lon="17.7388399">
        <ele>48.2034</ele>
        <time>2012-07-17T10:23:08Z</time>
      </trkpt>
      <trkpt lat="59.9888508" lon="17.7387706">
        <ele>47.7225</ele>
        <time>2012-07-17T10:23:16Z</time>
      </trkpt>
      <trkpt lat="59.9889752" lon="17.738673">
        <ele>47.7225</ele>
        <time>2012-07-17T10:23:24Z</time>
      </trkpt>
      <trkpt lat="59.9890757" lon="17.7386193">
        <ele>50.126</ele>
        <time>2012-07-17T10:23:29Z</time>
      </trkpt>
      <trkpt lat="59.9891279" lon="17.7385759">
        <ele>51.0872</ele>
        <time>2012-07-17T10:23:32Z</time>
      </trkpt>
      <trkpt lat="59.9892401" lon="17.7385266">
        <ele>49.1646</ele>
        <time>2012-07-17T10:23:40Z</time>
      </trkpt>
      <trkpt lat="59.9893282" lon="17.738502">
        <ele>47.7225</ele>
        <time>2012-07-17T10:23:46Z</time>
      </trkpt>
      <trkpt lat="59.9893852" lon="17.7384676">
        <ele>48.2034</ele>
        <time>2012-07-17T10:23:51Z</time>
      </trkpt>
      <trkpt lat="59.9894839" lon="17.7384365">
        <ele>48.684</ele>
        <time>2012-07-17T10:23:57Z</time>
      </trkpt>
      <trkpt lat="59.9896215" lon="17.7384043">
        <ele>50.126</ele>
        <time>2012-07-17T10:24:04Z</time>
      </trkpt>
      <trkpt lat="59.9897134" lon="17.7383322">
        <ele>48.2034</ele>
        <time>2012-07-17T10:24:11Z</time>
      </trkpt>
      <trkpt lat="59.9897444" lon="17.7383228">
        <ele>48.2034</ele>
        <time>2012-07-17T10:24:13Z</time>
      </trkpt>
      <trkpt lat="59.9898237" lon="17.7382772">
        <ele>49.1646</ele>
        <time>2012-07-17T10:24:18Z</time>
      </trkpt>
      <trkpt lat="59.9898615" lon="17.7382587">
        <ele>49.1646</ele>
        <time>2012-07-17T10:24:21Z</time>
      </trkpt>
      <trkpt lat="59.9899635" lon="17.7382665">
        <ele>47.2418</ele>
        <time>2012-07-17T10:24:28Z</time>
      </trkpt>
      <trkpt lat="59.9900632" lon="17.7382344">
        <ele>45.3192</ele>
        <time>2012-07-17T10:24:36Z</time>
      </trkpt>
      <trkpt lat="59.9901671" lon="17.7381826">
        <ele>45.3192</ele>
        <time>2012-07-17T10:24:42Z</time>
      </trkpt>
      <trkpt lat="59.9901934" lon="17.7381681">
        <ele>43.8773</ele>
        <time>2012-07-17T10:24:44Z</time>
      </trkpt>
      <trkpt lat="59.990267" lon="17.7381318">
        <ele>41.9547</ele>
        <time>2012-07-17T10:24:49Z</time>
      </trkpt>
      <trkpt lat="59.9902799" lon="17.7381309">
        <ele>40.5128</ele>
        <time>2012-07-17T10:24:50Z</time>
      </trkpt>
      <trkpt lat="59.990342" lon="17.7380909">
        <ele>41.9547</ele>
        <time>2012-07-17T10:24:54Z</time>
      </trkpt>
      <trkpt lat="59.9904456" lon="17.7380381">
        <ele>42.916</ele>
        <time>2012-07-17T10:25:01Z</time>
      </trkpt>
      <trkpt lat="59.9905394" lon="17.7379908">
        <ele>47.7225</ele>
        <time>2012-07-17T10:25:07Z</time>
      </trkpt>
      <trkpt lat="59.9906818" lon="17.7379313">
        <ele>49.6453</ele>
        <time>2012-07-17T10:25:15Z</time>
      </trkpt>
      <trkpt lat="59.990782" lon="17.737862">
        <ele>49.6453</ele>
        <time>2012-07-17T10:25:21Z</time>
      </trkpt>
      <trkpt lat="59.9908952" lon="17.7377656">
        <ele>56.8551</ele>
        <time>2012-07-17T10:25:27Z</time>
      </trkpt>
      <trkpt lat="59.9909792" lon="17.7377319">
        <ele>61.181</ele>
        <time>2012-07-17T10:25:31Z</time>
      </trkpt>
      <trkpt lat="59.9910099" lon="17.7377101">
        <ele>61.181</ele>
        <time>2012-07-17T10:25:33Z</time>
      </trkpt>
      <trkpt lat="59.9911387" lon="17.7376476">
        <ele>67.4297</ele>
        <time>2012-07-17T10:25:41Z</time>
      </trkpt>
      <trkpt lat="59.9912486" lon="17.7376263">
        <ele>67.9103</ele>
        <time>2012-07-17T10:25:46Z</time>
      </trkpt>
      <trkpt lat="59.9913497" lon="17.7375729">
        <ele>66.949</ele>
        <time>2012-07-17T10:25:53Z</time>
      </trkpt>
      <trkpt lat="59.9914259" lon="17.7375868">
        <ele>66.4683</ele>
        <time>2012-07-17T10:25:57Z</time>
      </trkpt>
      <trkpt lat="59.9914639" lon="17.7375806">
        <ele>66.4683</ele>
        <time>2012-07-17T10:25:59Z</time>
      </trkpt>
      <trkpt lat="59.9915842" lon="17.7376029">
        <ele>63.1036</ele>
        <time>2012-07-17T10:26:06Z</time>
      </trkpt>
      <trkpt lat="59.9916744" lon="17.7376004">
        <ele>56.8551</ele>
        <time>2012-07-17T10:26:12Z</time>
      </trkpt>
      <trkpt lat="59.9917463" lon="17.7376003">
        <ele>52.0486</ele>
        <time>2012-07-17T10:26:18Z</time>
      </trkpt>
      <trkpt lat="59.9918115" lon="17.7375914">
        <ele>51.0872</ele>
        <time>2012-07-17T10:26:22Z</time>
      </trkpt>
      <trkpt lat="59.991905" lon="17.7375439">
        <ele>52.0486</ele>
        <time>2012-07-17T10:26:28Z</time>
      </trkpt>
      <trkpt lat="59.9919437" lon="17.7375268">
        <ele>53.9712</ele>
        <time>2012-07-17T10:26:31Z</time>
      </trkpt>
      <trkpt lat="59.9920392" lon="17.7374903">
        <ele>56.8551</ele>
        <time>2012-07-17T10:26:37Z</time>
      </trkpt>
      <trkpt lat="59.9921065" lon="17.737491">
        <ele>56.8551</ele>
        <time>2012-07-17T10:26:41Z</time>
      </trkpt>
      <trkpt lat="59.9922017" lon="17.7374505">
        <ele>59.2584</ele>
        <time>2012-07-17T10:26:47Z</time>
      </trkpt>
    </trkseg>
  </trk>
</gpx>